Time;durP1;ratioP1;P1;durP2;ratioP2;P2;SDS_P1;SDS_P2;PMS_P1;PMS_P2;Temp;Humidity;BMP_temperature;BMP_pressure;BME280_temperature;BME280_humidity;BME280_pressure;Samples;Min_cycle;Max_cycle;Signal;HPM_P1;HPM_P2
2022/07/03 00:01:24;;;;;;;5.75;1.98;;;17.40;99.90;;;;;;4928592;29;20137;-79
2022/07/03 00:03:49;;;;;;;5.93;2.08;;;17.30;99.90;;;;;;4927476;29;20048;-79
2022/07/03 00:06:15;;;;;;;4.68;2.38;;;17.30;99.90;;;;;;4924100;29;20059;-79
2022/07/03 00:08:41;;;;;;;4.03;2.00;;;17.30;99.90;;;;;;4929374;29;20486;-78
2022/07/03 00:11:08;;;;;;;6.85;2.55;;;17.30;99.90;;;;;;4937871;29;20137;-79
2022/07/03 00:13:35;;;;;;;6.18;2.10;;;17.20;99.90;;;;;;4942000;28;20045;-79
2022/07/03 00:16:01;;;;;;;6.03;2.17;;;17.10;99.90;;;;;;4923264;29;20171;-79
2022/07/03 00:18:27;;;;;;;4.60;1.98;;;17.10;99.90;;;;;;4918650;29;20123;-79
2022/07/03 00:21:04;;;;;;;6.40;2.38;;;17.00;99.90;;;;;;4919664;29;20043;-79
2022/07/03 00:23:46;;;;;;;7.05;2.28;;;17.00;99.90;;;;;;4900422;29;20157;-79
2022/07/03 00:26:13;;;;;;;4.90;2.28;;;17.00;99.90;;;;;;4945853;29;20492;-79
2022/07/03 00:28:41;;;;;;;6.38;2.20;;;16.90;99.90;;;;;;4942079;29;20035;-78
2022/07/03 00:31:08;;;;;;;6.32;2.15;;;16.90;99.90;;;;;;4925230;28;20050;-79
2022/07/03 00:33:36;;;;;;;7.45;2.53;;;16.80;99.90;;;;;;4926961;29;20051;-79
2022/07/03 00:36:02;;;;;;;8.32;2.45;;;16.80;99.90;;;;;;4920757;29;20487;-79
2022/07/03 00:38:28;;;;;;;5.80;2.40;;;16.70;99.90;;;;;;4944189;29;20093;-79
2022/07/03 00:40:53;;;;;;;6.63;2.50;;;16.70;99.90;;;;;;4927873;29;20604;-79
2022/07/03 00:43:20;;;;;;;7.57;2.70;;;16.70;99.90;;;;;;4937347;28;20505;-79
2022/07/03 00:45:50;;;;;;;6.20;2.88;;;16.60;99.90;;;;;;4920911;29;20072;-79
2022/07/03 00:48:18;;;;;;;7.68;3.00;;;16.60;99.90;;;;;;4939956;29;20043;-80
2022/07/03 00:50:49;;;;;;;7.32;2.88;;;16.60;99.90;;;;;;4940490;29;20497;-79
2022/07/03 00:53:28;;;;;;;8.25;3.08;;;16.50;99.90;;;;;;4903629;29;20612;-79
2022/07/03 00:55:55;;;;;;;6.78;3.28;;;16.50;99.90;;;;;;4918230;29;20047;-80
2022/07/03 00:58:22;;;;;;;8.15;3.65;;;16.40;99.90;;;;;;4923191;29;20471;-79
2022/07/03 01:00:52;;;;;;;6.97;3.15;;;16.40;99.90;;;;;;4923657;29;20493;-79
2022/07/03 01:03:20;;;;;;;9.25;3.10;;;16.30;99.90;;;;;;4941104;28;20043;-80
2022/07/03 01:05:51;;;;;;;8.70;3.13;;;16.40;99.90;;;;;;4939085;29;20051;-79
2022/07/03 01:08:37;;;;;;;6.90;3.08;;;16.20;99.90;;;;;;4935290;29;20741;-79
2022/07/03 01:11:36;;;;;;;7.85;2.80;;;16.20;99.90;;;;;;4907443;29;20075;-79
2022/07/03 01:14:02;;;;;;;7.65;2.90;;;16.20;99.90;;;;;;4922706;28;20051;-79
2022/07/03 01:16:41;;;;;;;8.60;3.00;;;16.20;99.90;;;;;;4908681;29;20079;-79
2022/07/03 01:19:37;;;;;;;5.72;2.80;;;16.20;99.90;;;;;;4921805;29;20063;-79
2022/07/03 01:22:12;;;;;;;5.65;2.60;;;16.10;99.90;;;;;;4921325;29;20051;-79
2022/07/03 01:25:02;;;;;;;9.68;2.88;;;16.00;99.90;;;;;;4941513;28;20047;-79
2022/07/03 01:27:34;;;;;;;8.23;2.93;;;16.00;99.90;;;;;;4935086;28;20072;-79
2022/07/03 01:30:10;;;;;;;6.18;3.00;;;15.90;99.90;;;;;;4931351;29;20130;-79
2022/07/03 01:32:43;;;;;;;7.32;2.80;;;15.90;99.90;;;;;;4921420;29;20063;-79
2022/07/03 01:35:12;;;;;;;6.50;2.85;;;15.90;99.90;;;;;;4946171;29;20054;-79
2022/07/03 01:37:40;;;;;;;5.82;2.47;;;15.80;99.90;;;;;;4922049;29;20062;-79
2022/07/03 01:40:07;;;;;;;8.07;2.80;;;15.80;99.90;;;;;;4940012;29;20035;-79
2022/07/03 01:42:37;;;;;;;5.00;2.63;;;15.80;99.90;;;;;;4932657;28;20060;-79
2022/07/03 01:45:05;;;;;;;8.68;2.53;;;15.80;99.90;;;;;;4927878;29;20045;-79
2022/07/03 01:47:34;;;;;;;7.35;2.83;;;15.70;99.90;;;;;;4945120;28;20671;-79
2022/07/03 01:50:01;;;;;;;6.13;2.55;;;15.70;99.90;;;;;;4949109;28;20477;-79
2022/07/03 01:52:31;;;;;;;5.03;2.20;;;15.80;99.90;;;;;;4941399;28;20047;-79
2022/07/03 01:55:00;;;;;;;8.32;2.72;;;15.70;99.90;;;;;;4945360;28;20046;-79
2022/07/03 01:57:36;;;;;;;6.25;2.83;;;15.70;99.90;;;;;;4926144;29;20404;-79
2022/07/03 02:00:03;;;;;;;6.22;2.90;;;15.70;99.90;;;;;;4947024;29;20039;-79
2022/07/03 02:02:33;;;;;;;5.60;3.10;;;15.60;99.90;;;;;;4940949;28;20035;-80
2022/07/03 02:05:08;;;;;;;5.90;2.80;;;15.60;99.90;;;;;;4931850;29;20400;-79
2022/07/03 02:07:46;;;;;;;5.50;2.47;;;15.50;99.90;;;;;;4927326;29;20043;-79
2022/07/03 02:10:17;;;;;;;11.52;2.70;;;15.50;99.90;;;;;;4934981;29;20127;-79
2022/07/03 02:12:54;;;;;;;6.25;2.92;;;15.50;99.90;;;;;;4948092;29;20044;-79
2022/07/03 02:15:30;;;;;;;6.95;3.30;;;15.40;99.90;;;;;;4927476;29;20047;-78
2022/07/03 02:18:00;;;;;;;8.93;3.05;;;15.40;99.90;;;;;;4946741;28;20084;-77
2022/07/03 02:20:27;;;;;;;7.18;2.90;;;15.30;99.90;;;;;;4939163;28;20143;-78
2022/07/03 02:22:59;;;;;;;5.38;2.70;;;15.20;99.90;;;;;;4924358;29;20032;-79
2022/07/03 02:25:36;;;;;;;6.55;2.80;;;15.20;99.90;;;;;;4946577;29;20054;-78
2022/07/03 02:28:22;;;;;;;7.05;2.78;;;15.10;99.90;;;;;;4946433;28;20043;-79
2022/07/03 02:30:54;;;;;;;6.35;2.83;;;15.10;99.90;;;;;;4932761;29;20048;-79
2022/07/03 02:33:26;;;;;;;8.85;3.10;;;15.00;99.90;;;;;;4928228;29;20047;-79
2022/07/03 02:35:56;;;;;;;5.18;2.90;;;15.00;99.90;;;;;;4932430;28;20051;-79
2022/07/03 02:38:24;;;;;;;5.90;2.78;;;15.00;99.90;;;;;;4947928;28;20047;-79
2022/07/03 02:41:23;;;;;;;5.28;2.45;;;14.90;99.90;;;;;;4925503;29;20040;-79
2022/07/03 02:44:14;;;;;;;6.88;2.72;;;14.80;99.90;;;;;;4937048;29;20374;-79
2022/07/03 02:47:05;;;;;;;7.30;2.90;;;14.80;99.90;;;;;;4946294;28;20110;-79
2022/07/03 02:50:00;;;;;;;5.88;2.50;;;14.80;99.90;;;;;;4946153;28;20047;-79
2022/07/03 02:52:38;;;;;;;8.13;3.10;;;14.80;99.90;;;;;;4925175;29;20596;-79
2022/07/03 02:55:38;;;;;;;8.05;3.00;;;14.80;99.90;;;;;;4928018;29;20103;-79
2022/07/03 02:58:13;;;;;;;5.10;2.75;;;14.70;99.90;;;;;;4924883;29;20417;-79
2022/07/03 03:00:48;;;;;;;5.88;3.00;;;14.60;99.90;;;;;;4927588;29;20377;-78
2022/07/03 03:03:18;;;;;;;5.72;3.10;;;14.60;99.90;;;;;;4939592;29;20035;-79
2022/07/03 03:05:47;;;;;;;7.40;3.13;;;14.60;99.90;;;;;;4932235;29;20642;-78
2022/07/03 03:08:27;;;;;;;5.82;3.15;;;14.50;99.90;;;;;;4927520;29;20044;-79
2022/07/03 03:11:02;;;;;;;5.95;2.92;;;14.50;99.90;;;;;;4928580;29;20505;-79
2022/07/03 03:13:31;;;;;;;9.10;3.50;;;14.50;99.90;;;;;;4941056;28;20098;-79
2022/07/03 03:16:09;;;;;;;8.32;3.33;;;14.50;99.90;;;;;;4939190;29;20044;-79
2022/07/03 03:18:40;;;;;;;7.30;3.42;;;14.40;99.90;;;;;;4923629;29;20512;-80
2022/07/03 03:21:10;;;;;;;6.22;3.38;;;14.40;99.90;;;;;;4927119;29;20123;-80
2022/07/03 03:23:52;;;;;;;5.45;3.10;;;14.40;99.90;;;;;;4924862;29;20118;-80
2022/07/03 03:26:21;;;;;;;6.70;3.25;;;14.40;99.90;;;;;;4925370;29;20043;-79
2022/07/03 03:28:47;;;;;;;6.70;3.15;;;14.40;99.90;;;;;;4936641;29;20047;-79
2022/07/03 03:31:13;;;;;;;7.13;3.40;;;14.40;99.90;;;;;;4929567;29;20493;-79
2022/07/03 03:33:44;;;;;;;9.27;3.92;;;14.40;99.90;;;;;;4920832;29;20058;-79
2022/07/03 03:36:11;;;;;;;7.03;3.13;;;14.40;99.90;;;;;;4939203;29;20591;-79
2022/07/03 03:38:37;;;;;;;9.55;3.85;;;14.50;99.90;;;;;;4946729;29;20043;-79
2022/07/03 03:41:04;;;;;;;8.07;3.72;;;14.40;99.90;;;;;;4941584;29;20044;-79
2022/07/03 03:43:30;;;;;;;9.15;3.90;;;14.40;99.90;;;;;;4943644;28;20047;-80
2022/07/03 03:45:56;;;;;;;7.57;4.05;;;14.50;99.90;;;;;;4926461;29;20051;-79
2022/07/03 03:48:28;;;;;;;9.43;3.45;;;14.60;99.90;;;;;;4941937;29;20051;-80
2022/07/03 03:50:58;;;;;;;8.27;4.00;;;14.50;99.90;;;;;;4930348;29;20564;-79
2022/07/03 03:53:25;;;;;;;6.18;3.50;;;14.50;99.90;;;;;;4945716;29;20043;-80
2022/07/03 03:56:07;;;;;;;8.93;3.55;;;14.50;99.90;;;;;;4941483;28;20439;-80
2022/07/03 03:58:36;;;;;;;9.55;3.50;;;14.50;99.90;;;;;;4929886;29;20133;-79
2022/07/03 04:01:04;;;;;;;7.57;4.50;;;14.50;99.90;;;;;;4926106;29;20479;-80
2022/07/03 04:03:30;;;;;;;7.03;3.67;;;14.50;99.90;;;;;;4929744;29;20035;-80
2022/07/03 04:05:56;;;;;;;7.13;4.10;;;14.50;99.90;;;;;;4941362;29;20523;-80
2022/07/03 04:08:23;;;;;;;8.95;3.72;;;14.60;99.90;;;;;;4939631;29;20043;-80
2022/07/03 04:10:49;;;;;;;7.90;4.00;;;14.60;99.90;;;;;;4923303;29;20089;-80
2022/07/03 04:13:16;;;;;;;6.38;3.80;;;14.70;99.90;;;;;;4945413;29;20452;-80
2022/07/03 04:15:42;;;;;;;7.30;3.65;;;14.80;99.90;;;;;;4927516;29;20039;-80
2022/07/03 04:18:08;;;;;;;8.35;4.32;;;14.90;99.90;;;;;;4925923;29;20035;-80
2022/07/03 04:20:35;;;;;;;7.65;3.88;;;15.00;99.90;;;;;;4924287;29;20047;-80
2022/07/03 04:23:01;;;;;;;6.47;3.60;;;15.10;99.90;;;;;;4922726;29;20417;-80
2022/07/03 04:25:27;;;;;;;6.47;3.47;;;15.20;99.90;;;;;;4926077;29;20047;-80
2022/07/03 04:27:53;;;;;;;7.22;4.28;;;15.20;99.90;;;;;;4945675;28;20043;-80
2022/07/03 04:30:19;;;;;;;8.45;3.83;;;15.30;99.90;;;;;;4936635;29;20070;-80
2022/07/03 04:32:45;;;;;;;6.65;3.80;;;15.30;99.90;;;;;;4909282;29;20047;-80
2022/07/03 04:35:11;;;;;;;6.32;3.67;;;15.40;99.90;;;;;;4925766;29;20125;-80
2022/07/03 04:37:40;;;;;;;7.75;3.55;;;15.40;99.90;;;;;;4941945;29;20039;-80
2022/07/03 04:40:07;;;;;;;10.63;4.47;;;15.60;99.90;;;;;;4930412;29;20122;-80
2022/07/03 04:42:33;;;;;;;7.82;4.07;;;16.50;99.90;;;;;;4939466;29;20433;-79
2022/07/03 04:44:58;;;;;;;7.30;3.20;;;17.90;99.90;;;;;;4921368;29;20047;-79
2022/07/03 04:47:24;;;;;;;9.50;3.85;;;19.20;99.90;;;;;;4938726;29;20645;-80
2022/07/03 04:49:50;;;;;;;6.22;3.20;;;20.40;99.90;;;;;;4916977;29;20105;-80
2022/07/03 04:52:17;;;;;;;5.15;2.70;;;21.60;99.90;;;;;;4926349;29;20397;-80
2022/07/03 04:54:43;;;;;;;8.35;3.08;;;22.50;99.90;;;;;;4933182;29;20039;-80
2022/07/03 04:57:09;;;;;;;6.78;2.50;;;23.50;99.90;;;;;;4918467;29;20043;-80
2022/07/03 04:59:34;;;;;;;8.63;2.72;;;24.30;99.90;;;;;;4943116;29;20130;-80
2022/07/03 05:02:00;;;;;;;4.65;2.20;;;25.00;99.90;;;;;;4931823;29;20062;-80
2022/07/03 05:04:26;;;;;;;7.40;2.50;;;25.70;99.90;;;;;;4933866;29;20055;-80
2022/07/03 05:06:52;;;;;;;5.18;2.28;;;26.30;99.90;;;;;;4925366;29;20055;-80
2022/07/03 05:09:18;;;;;;;7.93;1.90;;;26.80;99.90;;;;;;4941892;28;20440;-80
2022/07/03 05:11:44;;;;;;;4.90;2.05;;;27.30;99.90;;;;;;4950086;28;20043;-80
2022/07/03 05:14:10;;;;;;;4.82;1.95;;;27.10;99.90;;;;;;4930196;29;20385;-80
2022/07/03 05:16:36;;;;;;;4.07;1.70;;;27.30;99.90;;;;;;4925142;29;20051;-80
2022/07/03 05:19:02;;;;;;;3.72;1.80;;;27.80;99.90;;;;;;4927068;29;20046;-78
2022/07/03 05:21:28;;;;;;;5.88;1.50;;;28.40;99.90;;;;;;4919876;29;20086;-78
2022/07/03 05:23:53;;;;;;;2.78;1.10;;;28.60;99.90;;;;;;4911578;29;20083;-78
2022/07/03 05:26:19;;;;;;;5.55;1.48;;;28.60;99.90;;;;;;4944440;28;20347;-78
2022/07/03 05:28:45;;;;;;;6.43;1.42;;;29.00;99.90;;;;;;4939073;28;20118;-79
2022/07/03 05:31:11;;;;;;;4.97;1.65;;;28.90;99.50;;;;;;4927875;29;20537;-78
2022/07/03 05:33:37;;;;;;;4.40;1.83;;;28.00;98.70;;;;;;4934336;29;20058;-78
2022/07/03 05:36:03;;;;;;;7.45;1.98;;;26.90;97.30;;;;;;4943113;28;20047;-78
2022/07/03 05:41:14;;;;;;;4.63;1.80;;;25.00;99.90;;;;;;4928383;29;20102;-78
2022/07/03 05:43:40;;;;;;;6.10;1.70;;;24.30;99.90;;;;;;4929919;29;20043;-77
2022/07/03 05:46:06;;;;;;;6.15;1.77;;;23.70;99.90;;;;;;4946384;28;20441;-78
2022/07/03 05:48:31;;;;;;;5.85;1.58;;;23.10;99.90;;;;;;4939107;29;20035;-77
2022/07/03 05:50:57;;;;;;;5.57;1.50;;;22.70;99.90;;;;;;4948164;28;20055;-78
2022/07/03 05:53:24;;;;;;;4.03;1.77;;;22.40;99.90;;;;;;4944755;29;20036;-77
2022/07/03 05:55:50;;;;;;;6.72;2.00;;;22.10;99.90;;;;;;4934999;28;20071;-77
2022/07/03 05:58:15;;;;;;;6.40;1.95;;;21.80;99.90;;;;;;4955624;29;20030;-78
2022/07/03 06:00:42;;;;;;;4.57;1.50;;;21.80;99.90;;;;;;4970066;28;20055;-78
2022/07/03 06:03:08;;;;;;;5.50;1.65;;;22.20;99.90;;;;;;4959166;29;20062;-77
2022/07/03 06:05:34;;;;;;;5.60;1.77;;;23.00;99.90;;;;;;4920173;28;20051;-77
2022/07/03 06:08:00;;;;;;;4.43;1.42;;;22.90;99.90;;;;;;4948166;29;20031;-77
2022/07/03 06:10:27;;;;;;;6.05;1.35;;;22.60;99.90;;;;;;4938506;29;20039;-78
2022/07/03 06:12:53;;;;;;;4.57;1.33;;;22.20;99.90;;;;;;4946789;29;20055;-78
2022/07/03 06:15:19;;;;;;;5.50;1.63;;;21.80;99.90;;;;;;4946922;29;20057;-77
2022/07/03 06:17:45;;;;;;;4.05;1.23;;;21.60;99.90;;;;;;4960509;28;20047;-77
2022/07/03 06:20:11;;;;;;;3.28;1.00;;;22.40;99.90;;;;;;4933126;29;20051;-76
2022/07/03 06:22:37;;;;;;;4.03;1.08;;;22.50;99.90;;;;;;4926510;29;20043;-77
2022/07/03 06:25:03;;;;;;;2.50;1.00;;;24.00;99.90;;;;;;4935259;29;20469;-78
2022/07/03 06:27:29;;;;;;;10.52;2.35;;;23.80;99.90;;;;;;4928914;29;20150;-77
2022/07/03 06:29:55;;;;;;;4.00;1.30;;;23.40;99.90;;;;;;4943047;29;20138;-77
2022/07/03 06:32:21;;;;;;;4.13;1.20;;;23.00;99.90;;;;;;4947848;28;20588;-77
2022/07/03 06:34:47;;;;;;;3.70;1.30;;;22.60;99.90;;;;;;4907431;29;20054;-77
2022/07/03 06:37:13;;;;;;;3.05;1.08;;;22.10;99.90;;;;;;4945833;28;20043;-74
2022/07/03 06:39:38;;;;;;;3.63;1.20;;;21.80;99.90;;;;;;4946108;28;20039;-76
2022/07/03 06:42:05;;;;;;;3.78;1.10;;;21.50;99.90;;;;;;4944375;28;20051;-76
2022/07/03 06:44:31;;;;;;;3.22;1.20;;;21.20;99.90;;;;;;4927410;29;20578;-78
2022/07/03 06:46:57;;;;;;;3.97;1.20;;;20.90;99.90;;;;;;4925915;29;20106;-77
2022/07/03 06:49:23;;;;;;;4.72;1.52;;;20.70;99.90;;;;;;4934375;29;20051;-76
2022/07/03 06:51:49;;;;;;;4.68;1.40;;;20.50;99.90;;;;;;4929908;29;20565;-77
2022/07/03 06:54:15;;;;;;;4.38;1.45;;;20.50;99.90;;;;;;4944723;28;20070;-77
2022/07/03 06:56:44;;;;;;;4.15;1.50;;;20.40;99.90;;;;;;4918802;29;20035;-77
2022/07/03 06:59:09;;;;;;;13.73;2.40;;;20.40;99.90;;;;;;4929876;29;20072;-77
2022/07/03 07:01:35;;;;;;;3.30;1.25;;;20.30;99.90;;;;;;4923211;29;20079;-77
2022/07/03 07:04:02;;;;;;;6.28;1.40;;;20.40;99.90;;;;;;4945484;28;20046;-77
2022/07/03 07:06:28;;;;;;;3.22;1.20;;;20.50;99.90;;;;;;4927374;29;20062;-77
2022/07/03 07:08:54;;;;;;;3.80;1.40;;;20.70;99.90;;;;;;4932362;29;20039;-77
2022/07/03 07:11:19;;;;;;;3.38;1.15;;;20.80;99.90;;;;;;4941377;29;20053;-77
2022/07/03 07:13:45;;;;;;;4.93;1.35;;;20.70;99.90;;;;;;4947065;28;20420;-77
2022/07/03 07:16:11;;;;;;;2.90;1.10;;;20.60;99.90;;;;;;4928996;29;20039;-77
2022/07/03 07:18:36;;;;;;;3.47;0.90;;;20.50;99.90;;;;;;4945021;29;20055;-77
2022/07/03 07:21:02;;;;;;;5.88;1.25;;;20.40;99.90;;;;;;4928705;29;20035;-76
2022/07/03 07:23:28;;;;;;;4.75;1.50;;;20.40;99.90;;;;;;4945363;28;20048;-77
2022/07/03 07:25:53;;;;;;;5.32;1.38;;;20.40;99.90;;;;;;4928691;29;20043;-77
2022/07/03 07:28:19;;;;;;;3.45;1.00;;;20.50;99.90;;;;;;4912434;29;20505;-76
2022/07/03 07:30:45;;;;;;;3.95;1.30;;;20.60;99.90;;;;;;4944822;28;20416;-77
2022/07/03 07:33:11;;;;;;;5.78;1.25;;;20.80;99.90;;;;;;4924481;29;20055;-77
2022/07/03 07:35:36;;;;;;;4.03;1.17;;;21.20;99.90;;;;;;4944748;28;20043;-77
2022/07/03 07:38:02;;;;;;;4.75;1.35;;;21.70;99.90;;;;;;4941955;29;20039;-76
2022/07/03 07:40:28;;;;;;;5.68;1.33;;;22.20;99.90;;;;;;4940128;29;20102;-76
2022/07/03 07:42:54;;;;;;;4.70;1.20;;;22.80;99.90;;;;;;4924650;29;20059;-77
2022/07/03 07:45:19;;;;;;;5.18;0.98;;;23.30;99.90;;;;;;4940744;28;20039;-76
2022/07/03 07:47:45;;;;;;;5.25;1.00;;;23.70;99.90;;;;;;4925196;29;20054;-77
2022/07/03 07:50:11;;;;;;;1.98;0.82;;;24.10;99.90;;;;;;4926301;29;20133;-77
2022/07/03 07:52:37;;;;;;;3.97;1.00;;;24.30;99.90;;;;;;4924631;29;20056;-77
2022/07/03 07:55:05;;;;;;;5.72;1.20;;;24.40;99.90;;;;;;4926464;29;20042;-77
2022/07/03 07:57:36;;;;;;;4.90;1.33;;;24.40;99.90;;;;;;4924533;29;20145;-77
2022/07/03 08:00:09;;;;;;;2.80;0.73;;;24.50;99.90;;;;;;4937323;29;20182;-77
2022/07/03 08:05:38;;;;;;;1.55;0.68;;;25.10;99.90;;;;;;4928173;29;20058;-77
2022/07/03 08:08:11;;;;;;;6.28;0.90;;;25.40;99.90;;;;;;4928723;29;20382;-77
2022/07/03 08:10:50;;;;;;;2.25;0.80;;;25.60;99.90;;;;;;4940823;29;20131;-77
2022/07/03 08:13:26;;;;;;;1.50;0.70;;;25.70;99.90;;;;;;5060387;27;20352;-71
2022/07/03 08:15:53;;;;;;;3.25;0.88;;;25.90;99.90;;;;;;5061440;27;20350;-71
2022/07/03 08:18:18;;;;;;;1.75;0.70;;;26.10;99.90;;;;;;5042757;28;20036;-71
2022/07/03 08:20:44;;;;;;;3.40;0.70;;;26.20;99.90;;;;;;5041622;28;20041;-71
2022/07/03 08:23:10;;;;;;;1.63;0.70;;;26.30;99.30;;;;;;5041729;27;20065;-71
2022/07/03 08:25:35;;;;;;;3.03;0.63;;;26.50;99.60;;;;;;5062540;28;20136;-71
2022/07/03 08:28:01;;;;;;;2.67;0.93;;;26.50;97.30;;;;;;5047433;27;20386;-71
2022/07/03 08:30:28;;;;;;;3.00;0.70;;;26.70;97.60;;;;;;5049843;27;20061;-71
2022/07/03 08:32:56;;;;;;;5.30;0.90;;;26.80;97.10;;;;;;5029566;27;20132;-70
2022/07/03 08:35:22;;;;;;;4.38;0.90;;;26.90;97.10;;;;;;5038003;28;20496;-72
2022/07/03 08:37:48;;;;;;;2.15;0.65;;;27.00;95.80;;;;;;5056048;28;20045;-71
2022/07/03 08:40:15;;;;;;;3.10;0.93;;;27.00;96.50;;;;;;5035838;27;20043;-70
2022/07/03 08:42:49;;;;;;;3.58;0.82;;;27.10;97.40;;;;;;5039981;27;20041;-71
2022/07/03 08:45:18;;;;;;;4.03;0.70;;;27.30;96.00;;;;;;5076424;27;20136;-72
2022/07/03 08:47:45;;;;;;;3.47;0.88;;;27.50;96.40;;;;;;5056030;28;20063;-71
2022/07/03 08:50:13;;;;;;;4.97;0.90;;;27.50;94.50;;;;;;5043132;28;20386;-72
2022/07/03 08:52:40;;;;;;;2.90;0.85;;;27.60;95.70;;;;;;5041464;28;20052;-72
2022/07/03 08:55:06;;;;;;;2.45;0.77;;;27.70;95.80;;;;;;5073002;27;20052;-72
2022/07/03 08:57:32;;;;;;;2.28;0.70;;;27.80;95.20;;;;;;5041136;28;20347;-72
2022/07/03 09:00:03;;;;;;;2.35;0.68;;;27.90;94.50;;;;;;5022885;27;20043;-72
2022/07/03 09:02:31;;;;;;;1.42;0.60;;;28.00;94.00;;;;;;5057798;27;20104;-72
2022/07/03 09:04:58;;;;;;;2.17;0.68;;;28.10;93.80;;;;;;5035463;28;20517;-73
2022/07/03 09:07:27;;;;;;;2.55;0.50;;;28.10;94.10;;;;;;5036276;28;20048;-73
2022/07/03 09:09:55;;;;;;;2.70;0.70;;;28.10;93.90;;;;;;5055378;27;20044;-73
2022/07/03 09:12:22;;;;;;;2.67;0.70;;;28.10;91.50;;;;;;5045006;27;20094;-74
2022/07/03 09:14:47;;;;;;;4.50;0.75;;;28.10;92.10;;;;;;5039892;27;20076;-72
2022/07/03 09:17:14;;;;;;;3.45;0.75;;;28.10;92.40;;;;;;5039499;27;20133;-72
2022/07/03 09:19:48;;;;;;;2.53;0.80;;;28.10;92.30;;;;;;5053383;27;20049;-72
2022/07/03 09:22:24;;;;;;;3.53;1.08;;;28.20;92.00;;;;;;5044888;27;20131;-72
2022/07/03 09:25:11;;;;;;;2.85;0.73;;;28.30;91.20;;;;;;5020368;28;20451;-74
2022/07/03 09:27:39;;;;;;;3.33;0.57;;;28.30;91.10;;;;;;5026970;27;20400;-75
2022/07/03 09:30:09;;;;;;;3.58;0.80;;;28.40;91.50;;;;;;5026720;27;20055;-74
2022/07/03 09:32:38;;;;;;;5.38;1.25;;;28.30;90.60;;;;;;5028198;27;20053;-74
2022/07/03 09:35:26;;;;;;;4.60;0.90;;;28.10;89.20;;;;;;5027407;28;20041;-75
2022/07/03 09:38:04;;;;;;;4.28;1.00;;;28.00;87.60;;;;;;5043826;27;20060;-73
2022/07/03 09:40:51;;;;;;;2.25;0.70;;;27.90;89.90;;;;;;5027308;27;20566;-74
2022/07/03 09:43:30;;;;;;;3.10;0.80;;;27.80;87.30;;;;;;5024872;28;20083;-74
2022/07/03 09:45:59;;;;;;;4.13;0.90;;;27.40;88.90;;;;;;5029413;27;20640;-74
2022/07/03 09:48:29;;;;;;;1.92;0.57;;;27.20;88.90;;;;;;5025138;28;20370;-75
2022/07/03 09:51:11;;;;;;;2.70;0.73;;;27.20;89.40;;;;;;5056571;27;20403;-73
2022/07/03 09:53:47;;;;;;;2.67;1.15;;;27.10;89.50;;;;;;5017420;27;20064;-74
2022/07/03 09:56:12;;;;;;;3.67;0.80;;;27.30;90.40;;;;;;5035221;27;20037;-74
2022/07/03 09:58:39;;;;;;;4.72;1.13;;;27.60;90.50;;;;;;5024238;28;20409;-74
2022/07/03 10:01:22;;;;;;;2.05;0.70;;;27.80;85.70;;;;;;5021257;28;20042;-74
2022/07/03 10:03:48;;;;;;;3.55;0.80;;;27.80;88.40;;;;;;5020497;28;20045;-73
2022/07/03 10:06:14;;;;;;;4.50;0.80;;;27.60;89.60;;;;;;5012645;28;20603;-73
2022/07/03 10:08:42;;;;;;;3.00;0.80;;;27.50;89.50;;;;;;5024787;27;20056;-73
2022/07/03 10:11:08;;;;;;;2.47;0.70;;;27.00;89.20;;;;;;5021586;28;20037;-72
2022/07/03 10:13:41;;;;;;;1.95;0.80;;;26.50;89.80;;;;;;5006697;27;20268;-73
2022/07/03 10:16:07;;;;;;;4.18;0.90;;;26.40;90.60;;;;;;5022369;27;20094;-73
2022/07/03 10:18:39;;;;;;;3.92;0.80;;;26.70;90.70;;;;;;5027307;27;20047;-73
2022/07/03 10:21:08;;;;;;;4.53;1.30;;;27.00;89.40;;;;;;5050069;27;20109;-73
2022/07/03 10:23:33;;;;;;;2.65;0.90;;;27.30;90.30;;;;;;5007414;28;20109;-73
2022/07/03 10:25:59;;;;;;;3.38;0.70;;;27.50;87.70;;;;;;5023819;28;20421;-74
2022/07/03 10:28:25;;;;;;;6.03;0.90;;;27.80;90.60;;;;;;5021502;28;20644;-73
2022/07/03 10:30:51;;;;;;;5.28;1.23;;;28.00;90.50;;;;;;5024412;28;20048;-72
2022/07/03 10:33:18;;;;;;;5.35;0.95;;;28.30;90.60;;;;;;5040931;28;20113;-73
2022/07/03 10:35:52;;;;;;;3.03;1.00;;;28.50;90.50;;;;;;5020701;28;20041;-73
2022/07/03 10:38:30;;;;;;;2.35;0.80;;;28.70;89.30;;;;;;5029055;27;20496;-74
2022/07/03 10:46:37;;;;;;;3.72;0.90;;;28.60;89.10;;;;;;5023316;28;20390;-73
2022/07/03 10:49:10;;;;;;;5.90;1.20;;;28.70;88.20;;;;;;5045631;27;20047;-73
2022/07/03 10:51:48;;;;;;;3.55;1.05;;;28.70;88.10;;;;;;5054688;27;20083;-73
2022/07/03 10:54:24;;;;;;;4.03;0.80;;;28.60;85.20;;;;;;5033002;27;20535;-72
2022/07/03 10:56:59;;;;;;;4.43;1.13;;;28.70;88.70;;;;;;5045396;27;20045;-72
2022/07/03 10:59:44;;;;;;;3.22;0.82;;;28.70;86.00;;;;;;5055383;27;20053;-74
2022/07/03 11:02:32;;;;;;;5.90;1.10;;;28.80;86.50;;;;;;5034569;27;20045;-73
2022/07/03 11:04:58;;;;;;;4.75;0.90;;;28.20;83.90;;;;;;5027001;28;20049;-74
2022/07/03 11:07:33;;;;;;;4.82;1.00;;;27.60;86.00;;;;;;5039404;27;20072;-74
2022/07/03 11:10:14;;;;;;;5.15;1.10;;;27.10;87.70;;;;;;5039967;27;20093;-74
2022/07/03 11:13:00;;;;;;;3.38;0.80;;;27.10;89.80;;;;;;5046972;27;20083;-75
2022/07/03 11:15:53;;;;;;;4.75;0.90;;;27.40;88.30;;;;;;5020633;28;20052;-74
2022/07/03 11:18:29;;;;;;;2.70;0.90;;;27.60;85.10;;;;;;5036957;27;20048;-73
2022/07/03 11:21:25;;;;;;;4.63;1.10;;;27.80;86.40;;;;;;5054621;27;20085;-73
2022/07/03 11:24:07;;;;;;;7.95;1.33;;;27.60;87.40;;;;;;5034982;27;20370;-74
2022/07/03 11:26:33;;;;;;;7.10;1.27;;;27.00;88.80;;;;;;5030045;27;20537;-73
2022/07/03 11:28:59;;;;;;;4.72;1.67;;;26.50;90.00;;;;;;5025158;27;20458;-74
2022/07/03 11:31:25;;;;;;;7.50;1.50;;;26.30;90.40;;;;;;5051512;27;20523;-73
2022/07/03 11:33:51;;;;;;;6.70;1.30;;;26.50;92.10;;;;;;5049006;27;20408;-73
2022/07/03 11:36:16;;;;;;;10.95;1.23;;;26.80;92.50;;;;;;5022547;28;20040;-73
2022/07/03 11:38:54;;;;;;;4.65;1.13;;;27.00;92.50;;;;;;5038767;27;20045;-73
2022/07/03 11:41:20;;;;;;;5.70;1.25;;;26.90;89.90;;;;;;5010310;27;20037;-73
2022/07/03 11:43:51;;;;;;;6.07;1.25;;;26.50;90.90;;;;;;5012212;28;20041;-72
2022/07/03 11:46:23;;;;;;;9.45;1.70;;;26.00;90.90;;;;;;5038534;27;20033;-74
2022/07/03 11:48:48;;;;;;;7.50;1.95;;;25.50;91.10;;;;;;5033331;27;20726;-73
2022/07/03 11:51:15;;;;;;;6.18;1.13;;;25.20;91.80;;;;;;5019409;28;20045;-72
2022/07/03 11:53:41;;;;;;;6.80;1.25;;;25.20;92.50;;;;;;5022116;27;20568;-72
2022/07/03 11:56:12;;;;;;;5.70;1.27;;;25.30;92.10;;;;;;5045873;27;20045;-73
2022/07/03 11:58:52;;;;;;;4.93;1.00;;;25.30;92.40;;;;;;5050366;27;20481;-73
2022/07/03 12:01:27;;;;;;;5.15;1.25;;;25.40;92.40;;;;;;5036939;28;20053;-73
2022/07/03 12:03:53;;;;;;;5.43;1.30;;;25.50;93.30;;;;;;5037850;28;20052;-73
2022/07/03 12:06:20;;;;;;;6.90;1.50;;;25.60;94.10;;;;;;5022173;28;20374;-70
2022/07/03 12:08:46;;;;;;;8.25;1.45;;;25.80;94.00;;;;;;5019187;28;20497;-71
2022/07/03 12:11:16;;;;;;;5.32;1.15;;;26.20;94.50;;;;;;5040043;28;20053;-72
2022/07/03 12:13:44;;;;;;;4.13;1.05;;;26.50;94.20;;;;;;5055659;27;20068;-73
2022/07/03 12:16:13;;;;;;;8.55;1.40;;;26.60;93.50;;;;;;5039949;28;20481;-72
2022/07/03 12:18:51;;;;;;;4.68;1.23;;;26.30;92.80;;;;;;5052219;27;20415;-73
2022/07/03 12:21:18;;;;;;;8.80;1.35;;;25.90;93.20;;;;;;5022559;28;20073;-77
2022/07/03 12:23:45;;;;;;;5.78;1.10;;;25.50;93.40;;;;;;5035559;28;20112;-74
2022/07/03 12:26:12;;;;;;;3.92;1.10;;;25.10;93.80;;;;;;5032941;28;20061;-74
2022/07/03 12:28:38;;;;;;;7.47;1.50;;;24.80;94.10;;;;;;5040128;27;20045;-74
2022/07/03 12:31:05;;;;;;;5.32;1.40;;;24.60;94.20;;;;;;5052042;27;20475;-73
2022/07/03 12:33:35;;;;;;;3.22;0.88;;;24.40;94.40;;;;;;5029834;27;20120;-72
2022/07/03 12:36:11;;;;;;;2.67;1.00;;;24.20;94.40;;;;;;5020247;28;20073;-73
2022/07/03 12:38:37;;;;;;;4.57;1.20;;;24.10;94.80;;;;;;5037957;28;20465;-72
2022/07/03 12:41:05;;;;;;;5.90;1.27;;;24.40;95.40;;;;;;5028885;28;20561;-72
2022/07/03 12:43:41;;;;;;;2.92;0.93;;;24.80;94.90;;;;;;5041981;28;20160;-72
2022/07/03 12:46:16;;;;;;;3.58;0.90;;;25.10;94.40;;;;;;5038591;28;20048;-72
2022/07/03 12:49:09;;;;;;;3.17;0.80;;;25.40;94.60;;;;;;5034788;28;20053;-72
2022/07/03 12:51:53;;;;;;;2.72;0.98;;;25.70;93.80;;;;;;5036383;28;20426;-74
2022/07/03 12:54:33;;;;;;;3.00;0.77;;;25.70;93.40;;;;;;5034259;28;20045;-72
2022/07/03 13:00:11;;;;;;;3.25;0.95;;;25.10;93.20;;;;;;5039353;27;20104;-72
2022/07/03 13:02:41;;;;;;;4.63;1.00;;;24.80;93.70;;;;;;5061114;27;20051;-72
2022/07/03 13:05:25;;;;;;;2.55;0.70;;;24.60;94.20;;;;;;5046047;27;20340;-72
2022/07/03 13:07:55;;;;;;;4.78;0.90;;;24.50;94.30;;;;;;5055550;27;20079;-72
2022/07/03 13:10:23;;;;;;;3.85;0.95;;;24.40;94.60;;;;;;5035869;27;20041;-72
2022/07/03 13:12:53;;;;;;;3.67;0.70;;;24.20;94.50;;;;;;5052153;27;20045;-72
2022/07/03 13:15:19;;;;;;;;;;;24.10;95.00;;;;;;5040342;27;20441;-72
2022/07/03 13:18:03;;;;;;;4.43;0.90;;;24.30;95.50;;;;;;5018779;28;19924;-76